Seabulk Challenge — KNJL — position and weather

sailwx.info

Track history (hours):
 
Tides and Currents Weather Stations Pressure Air Temp Water Temp Dewpoint Dewpoint Depression Visibility Wind Speed Wind Dir Waves Ship Positions

Seabulk Challenge

Owner: Seabulk Tankers, Inc., Fort Lauderdale, FL. More information available from US FCC via Universal Licensing System and Coast Guard Vessel Documentation Center.

Last reported at 2015-Jul-26 07:33 UTC. Time now 2015-Jul-30 16:07 UTC.
Position N 29°28' W 089°41'.

Length 192 m; draft 10.2 m.

Type: Tanker. MMSI: 303104000.

Date/timePositionNaut miles runAvg speedWind from/ knotsBaromVisibWave heightAir tempDewpointWater temp
2015-Jul-26 07:33N 29°28' W 089°41'57011.3
2015-Jul-24 05:06N 25°16' W 080°05'712.8
2015-Jul-24 04:33N 25°22' W 080°02'1212.5
2015-Jul-24 03:33N 25°34' W 079°59'1312.7
2015-Jul-24 02:33N 25°47' W 079°58'1413.9
2015-Jul-24 01:33N 26°00' W 080°02'1010.2
2015-Jul-24 00:34N 26°10' W 080°02'5 4.8
2015-Jul-23 23:34N 26°06' W 080°03'4 3.4
2015-Jul-23 22:31N 26°06' W 080°07'0 0.0
2015-Jul-23 21:31N 26°06' W 080°07'0 0.0
2015-Jul-23 20:31N 26°06' W 080°07'0 0.0
2015-Jul-23 19:31N 26°06' W 080°07'0 0.0
2015-Jul-23 18:31N 26°06' W 080°07'0 0.0
2015-Jul-23 17:22N 26°06' W 080°07'0 0.0
2015-Jul-23 16:25N 26°06' W 080°07'0 0.0
2015-Jul-23 15:25N 26°06' W 080°07'0 0.0
2015-Jul-23 14:25N 26°06' W 080°07'0 0.0
2015-Jul-23 13:28N 26°06' W 080°07'0 0.0
2015-Jul-23 12:28N 26°06' W 080°07'0 0.0
2015-Jul-23 11:28N 26°06' W 080°07'0 0.0
2015-Jul-23 10:28N 26°06' W 080°07'0 0.0
2015-Jul-23 09:31N 26°06' W 080°07'0 0.0
2015-Jul-23 08:31N 26°06' W 080°07'0 0.0
2015-Jul-23 07:31N 26°06' W 080°07'0 0.0
2015-Jul-23 06:31N 26°06' W 080°07'0 0.0
2015-Jul-23 05:31N 26°06' W 080°07'0 0.0
2015-Jul-23 04:31N 26°06' W 080°07'0 0.0
2015-Jul-23 03:22N 26°06' W 080°07'0 0.0
2015-Jul-23 02:25N 26°06' W 080°07'0 0.0
2015-Jul-23 01:25N 26°06' W 080°07'0 0.0
2015-Jul-23 00:25N 26°06' W 080°07'0 0.0
2015-Jul-22 23:28N 26°06' W 080°07'0 0.0
2015-Jul-22 22:28N 26°06' W 080°07'0 0.0
2015-Jul-22 21:28N 26°06' W 080°07'0 0.0
2015-Jul-22 20:31N 26°06' W 080°07'0 0.0
2015-Jul-22 19:31N 26°06' W 080°07'0 0.0
2015-Jul-22 18:31N 26°06' W 080°07'0 0.0
2015-Jul-22 17:28N 26°06' W 080°07'0 0.0
2015-Jul-22 16:31N 26°06' W 080°07'0 0.0
2015-Jul-22 15:31N 26°06' W 080°07'0 0.0
2015-Jul-22 14:31N 26°06' W 080°07'0 0.0
2015-Jul-22 13:22N 26°06' W 080°07'0 0.0
2015-Jul-22 12:25N 26°06' W 080°07'0 0.0
2015-Jul-22 11:25N 26°06' W 080°07'0 0.0
2015-Jul-22 10:25N 26°06' W 080°07'0 0.0
2015-Jul-22 09:25N 26°06' W 080°07'0 0.0
2015-Jul-22 08:25N 26°06' W 080°07'0 0.1
2015-Jul-22 07:28N 26°06' W 080°07'4 4.4
2015-Jul-22 06:33N 26°06' W 080°03'2 2.2
2015-Jul-22 05:33N 26°08' W 080°04'0 0.0
2015-Jul-22 04:33N 26°08' W 080°04'0 0.0
2015-Jul-22 03:33N 26°08' W 080°04'0 0.0
2015-Jul-22 02:33N 26°08' W 080°05'0 0.0
2015-Jul-22 01:33N 26°08' W 080°04'0 0.0
2015-Jul-22 00:33N 26°08' W 080°04'0 0.0
2015-Jul-21 23:33N 26°08' W 080°05'0 0.0
2015-Jul-21 22:33N 26°08' W 080°04'0 0.0
2015-Jul-21 21:27N 26°08' W 080°04'0 0.0
2015-Jul-21 20:33N 26°08' W 080°05'0 0.0
2015-Jul-21 19:33N 26°08' W 080°04'0 0.0
2015-Jul-21 18:33N 26°08' W 080°05'0 0.0
2015-Jul-21 17:30N 26°08' W 080°04'0 0.0
2015-Jul-21 16:30N 26°08' W 080°04'0 0.1
2015-Jul-21 15:33N 26°08' W 080°05'0 0.0
2015-Jul-21 14:33N 26°08' W 080°04'0 0.0
2015-Jul-21 13:33N 26°08' W 080°04'0 0.0
2015-Jul-21 12:33N 26°08' W 080°05'4 4.4
2015-Jul-21 11:33N 26°06' W 080°00'8 8.2
2015-Jul-21 10:33N 25°58' W 079°57'1817.9
2015-Jul-21 09:33N 25°40' W 079°55'1817.9
2015-Jul-21 08:33N 25°22' W 079°58'  
Track history (hours):
 
Tides and Currents Weather Stations Pressure Air Temp Water Temp Dewpoint Dewpoint Depression Visibility Wind Speed Wind Dir Waves Ship Positions

Seabulk Challenge

Owner: Seabulk Tankers, Inc., Fort Lauderdale, FL. More information available from US FCC via Universal Licensing System and Coast Guard Vessel Documentation Center.

Last reported at 2015-Jul-26 07:33 UTC. Time now 2015-Jul-30 16:07 UTC.
Position N 29°28' W 089°41'.

Length 192 m; draft 10.2 m.

Type: Tanker. MMSI: 303104000.

Date/timePositionNaut miles runAvg speedWind from/ knotsBaromVisibWave heightAir tempDewpointWater temp
2015-Jul-26 07:33N 29°28' W 089°41'57011.3
2015-Jul-24 05:06N 25°16' W 080°05'712.8
2015-Jul-24 04:33N 25°22' W 080°02'1212.5
2015-Jul-24 03:33N 25°34' W 079°59'1312.7
2015-Jul-24 02:33N 25°47' W 079°58'1413.9
2015-Jul-24 01:33N 26°00' W 080°02'1010.2
2015-Jul-24 00:34N 26°10' W 080°02'5 4.8
2015-Jul-23 23:34N 26°06' W 080°03'4 3.4
2015-Jul-23 22:31N 26°06' W 080°07'0 0.0
2015-Jul-23 21:31N 26°06' W 080°07'0 0.0
2015-Jul-23 20:31N 26°06' W 080°07'0 0.0
2015-Jul-23 19:31N 26°06' W 080°07'0 0.0
2015-Jul-23 18:31N 26°06' W 080°07'0 0.0
2015-Jul-23 17:22N 26°06' W 080°07'0 0.0
2015-Jul-23 16:25N 26°06' W 080°07'0 0.0
2015-Jul-23 15:25N 26°06' W 080°07'0 0.0
2015-Jul-23 14:25N 26°06' W 080°07'0 0.0
2015-Jul-23 13:28N 26°06' W 080°07'0 0.0
2015-Jul-23 12:28N 26°06' W 080°07'0 0.0
2015-Jul-23 11:28N 26°06' W 080°07'0 0.0
2015-Jul-23 10:28N 26°06' W 080°07'0 0.0
2015-Jul-23 09:31N 26°06' W 080°07'0 0.0
2015-Jul-23 08:31N 26°06' W 080°07'0 0.0
2015-Jul-23 07:31N 26°06' W 080°07'0 0.0
2015-Jul-23 06:31N 26°06' W 080°07'0 0.0
2015-Jul-23 05:31N 26°06' W 080°07'0 0.0
2015-Jul-23 04:31N 26°06' W 080°07'0 0.0
2015-Jul-23 03:22N 26°06' W 080°07'0 0.0
2015-Jul-23 02:25N 26°06' W 080°07'0 0.0
2015-Jul-23 01:25N 26°06' W 080°07'0 0.0
2015-Jul-23 00:25N 26°06' W 080°07'0 0.0
2015-Jul-22 23:28N 26°06' W 080°07'0 0.0
2015-Jul-22 22:28N 26°06' W 080°07'0 0.0
2015-Jul-22 21:28N 26°06' W 080°07'0 0.0
2015-Jul-22 20:31N 26°06' W 080°07'0 0.0
2015-Jul-22 19:31N 26°06' W 080°07'0 0.0
2015-Jul-22 18:31N 26°06' W 080°07'0 0.0
2015-Jul-22 17:28N 26°06' W 080°07'0 0.0
2015-Jul-22 16:31N 26°06' W 080°07'0 0.0
2015-Jul-22 15:31N 26°06' W 080°07'0 0.0
2015-Jul-22 14:31N 26°06' W 080°07'0 0.0
2015-Jul-22 13:22N 26°06' W 080°07'0 0.0
2015-Jul-22 12:25N 26°06' W 080°07'0 0.0
2015-Jul-22 11:25N 26°06' W 080°07'0 0.0
2015-Jul-22 10:25N 26°06' W 080°07'0 0.0
2015-Jul-22 09:25N 26°06' W 080°07'0 0.0
2015-Jul-22 08:25N 26°06' W 080°07'0 0.1
2015-Jul-22 07:28N 26°06' W 080°07'4 4.4
2015-Jul-22 06:33N 26°06' W 080°03'2 2.2
2015-Jul-22 05:33N 26°08' W 080°04'0 0.0
2015-Jul-22 04:33N 26°08' W 080°04'0 0.0
2015-Jul-22 03:33N 26°08' W 080°04'0 0.0
2015-Jul-22 02:33N 26°08' W 080°05'0 0.0
2015-Jul-22 01:33N 26°08' W 080°04'0 0.0
2015-Jul-22 00:33N 26°08' W 080°04'0 0.0
2015-Jul-21 23:33N 26°08' W 080°05'0 0.0
2015-Jul-21 22:33N 26°08' W 080°04'0 0.0
2015-Jul-21 21:27N 26°08' W 080°04'0 0.0
2015-Jul-21 20:33N 26°08' W 080°05'0 0.0
2015-Jul-21 19:33N 26°08' W 080°04'0 0.0
2015-Jul-21 18:33N 26°08' W 080°05'0 0.0
2015-Jul-21 17:30N 26°08' W 080°04'0 0.0
2015-Jul-21 16:30N 26°08' W 080°04'0 0.1
2015-Jul-21 15:33N 26°08' W 080°05'0 0.0
2015-Jul-21 14:33N 26°08' W 080°04'0 0.0
2015-Jul-21 13:33N 26°08' W 080°04'0 0.0
2015-Jul-21 12:33N 26°08' W 080°05'4 4.4
2015-Jul-21 11:33N 26°06' W 080°00'8 8.2
2015-Jul-21 10:33N 25°58' W 079°57'1817.9
2015-Jul-21 09:33N 25°40' W 079°55'1817.9
2015-Jul-21 08:33N 25°22' W 079°58'  

Dump ship's entire track history